sensor_id;sensor_type;location;lat;lon;timestamp;P1;durP1;ratioP1;P2;durP2;ratioP2
68803;SDS011;55787;52.678;13.314;2024-01-27T00:00:48;9.53;;;1.10;;
68803;SDS011;55787;52.678;13.314;2024-01-27T00:03:14;11.93;;;0.85;;
68803;SDS011;55787;52.678;13.314;2024-01-27T00:05:41;12.32;;;0.85;;
68803;SDS011;55787;52.678;13.314;2024-01-27T00:08:08;10.40;;;0.88;;
68803;SDS011;55787;52.678;13.314;2024-01-27T00:10:34;12.80;;;0.93;;
68803;SDS011;55787;52.678;13.314;2024-01-27T00:13:01;17.23;;;0.80;;
68803;SDS011;55787;52.678;13.314;2024-01-27T00:15:27;14.20;;;1.02;;
68803;SDS011;55787;52.678;13.314;2024-01-27T00:17:54;15.38;;;1.20;;
68803;SDS011;55787;52.678;13.314;2024-01-27T00:20:21;8.95;;;0.70;;
68803;SDS011;55787;52.678;13.314;2024-01-27T00:22:48;15.45;;;1.25;;
68803;SDS011;55787;52.678;13.314;2024-01-27T00:25:14;13.43;;;1.07;;
68803;SDS011;55787;52.678;13.314;2024-01-27T00:27:41;14.27;;;1.00;;
68803;SDS011;55787;52.678;13.314;2024-01-27T00:30:07;11.70;;;1.05;;
68803;SDS011;55787;52.678;13.314;2024-01-27T00:32:34;10.98;;;0.85;;
68803;SDS011;55787;52.678;13.314;2024-01-27T00:35:01;12.98;;;1.00;;
68803;SDS011;55787;52.678;13.314;2024-01-27T00:37:29;12.67;;;1.03;;
68803;SDS011;55787;52.678;13.314;2024-01-27T00:39:55;12.68;;;0.90;;
68803;SDS011;55787;52.678;13.314;2024-01-27T00:42:22;12.50;;;1.35;;
68803;SDS011;55787;52.678;13.314;2024-01-27T00:44:51;13.75;;;1.15;;
68803;SDS011;55787;52.678;13.314;2024-01-27T00:47:18;13.27;;;0.80;;
68803;SDS011;55787;52.678;13.314;2024-01-27T00:49:44;10.40;;;0.70;;
68803;SDS011;55787;52.678;13.314;2024-01-27T00:52:11;16.35;;;1.20;;
68803;SDS011;55787;52.678;13.314;2024-01-27T00:54:38;15.55;;;1.17;;
68803;SDS011;55787;52.678;13.314;2024-01-27T00:57:04;17.45;;;1.00;;
68803;SDS011;55787;52.678;13.314;2024-01-27T00:59:31;14.40;;;1.05;;
68803;SDS011;55787;52.678;13.314;2024-01-27T01:01:58;17.40;;;1.30;;
68803;SDS011;55787;52.678;13.314;2024-01-27T01:04:25;12.35;;;0.95;;
68803;SDS011;55787;52.678;13.314;2024-01-27T01:06:51;13.10;;;1.10;;
68803;SDS011;55787;52.678;13.314;2024-01-27T01:09:18;14.23;;;1.00;;
68803;SDS011;55787;52.678;13.314;2024-01-27T01:11:44;10.18;;;0.80;;
68803;SDS011;55787;52.678;13.314;2024-01-27T01:14:11;11.50;;;0.90;;
68803;SDS011;55787;52.678;13.314;2024-01-27T01:16:38;10.50;;;0.80;;
68803;SDS011;55787;52.678;13.314;2024-01-27T01:19:07;12.25;;;0.75;;
68803;SDS011;55787;52.678;13.314;2024-01-27T01:21:34;11.05;;;1.00;;
68803;SDS011;55787;52.678;13.314;2024-01-27T01:24:00;16.73;;;1.17;;
68803;SDS011;55787;52.678;13.314;2024-01-27T01:26:27;9.37;;;0.77;;
68803;SDS011;55787;52.678;13.314;2024-01-27T01:28:54;9.75;;;0.75;;
68803;SDS011;55787;52.678;13.314;2024-01-27T01:31:20;15.13;;;1.10;;
68803;SDS011;55787;52.678;13.314;2024-01-27T01:33:47;10.77;;;0.95;;
68803;SDS011;55787;52.678;13.314;2024-01-27T01:36:14;14.45;;;1.30;;
68803;SDS011;55787;52.678;13.314;2024-01-27T01:38:40;12.17;;;0.60;;
68803;SDS011;55787;52.678;13.314;2024-01-27T01:41:07;12.10;;;1.15;;
68803;SDS011;55787;52.678;13.314;2024-01-27T01:43:33;10.75;;;0.75;;
68803;SDS011;55787;52.678;13.314;2024-01-27T01:46:00;9.95;;;0.90;;
68803;SDS011;55787;52.678;13.314;2024-01-27T01:48:27;15.07;;;1.23;;
68803;SDS011;55787;52.678;13.314;2024-01-27T01:50:54;11.93;;;0.70;;
68803;SDS011;55787;52.678;13.314;2024-01-27T01:53:21;12.57;;;1.27;;
68803;SDS011;55787;52.678;13.314;2024-01-27T01:55:49;14.35;;;0.73;;
68803;SDS011;55787;52.678;13.314;2024-01-27T01:58:16;9.32;;;1.00;;
68803;SDS011;55787;52.678;13.314;2024-01-27T02:00:43;9.93;;;0.85;;
68803;SDS011;55787;52.678;13.314;2024-01-27T02:03:11;16.20;;;1.03;;
68803;SDS011;55787;52.678;13.314;2024-01-27T02:05:39;11.85;;;1.10;;
68803;SDS011;55787;52.678;13.314;2024-01-27T02:08:06;14.18;;;1.30;;
68803;SDS011;55787;52.678;13.314;2024-01-27T02:10:33;14.90;;;1.38;;
68803;SDS011;55787;52.678;13.314;2024-01-27T02:13:23;17.55;;;1.35;;
68803;SDS011;55787;52.678;13.314;2024-01-27T02:15:49;10.80;;;0.90;;
68803;SDS011;55787;52.678;13.314;2024-01-27T02:18:16;16.67;;;0.90;;
68803;SDS011;55787;52.678;13.314;2024-01-27T02:20:43;13.75;;;1.80;;
68803;SDS011;55787;52.678;13.314;2024-01-27T02:23:10;21.48;;;1.25;;
68803;SDS011;55787;52.678;13.314;2024-01-27T02:25:37;10.25;;;0.80;;
68803;SDS011;55787;52.678;13.314;2024-01-27T02:28:03;16.03;;;0.90;;
68803;SDS011;55787;52.678;13.314;2024-01-27T02:30:30;13.45;;;1.00;;
68803;SDS011;55787;52.678;13.314;2024-01-27T02:32:57;14.13;;;1.58;;
68803;SDS011;55787;52.678;13.314;2024-01-27T02:35:25;10.88;;;0.90;;
68803;SDS011;55787;52.678;13.314;2024-01-27T02:37:51;15.05;;;1.10;;
68803;SDS011;55787;52.678;13.314;2024-01-27T02:40:18;11.53;;;0.97;;
68803;SDS011;55787;52.678;13.314;2024-01-27T02:42:44;9.60;;;0.93;;
68803;SDS011;55787;52.678;13.314;2024-01-27T02:45:11;16.63;;;0.70;;
68803;SDS011;55787;52.678;13.314;2024-01-27T02:47:38;15.25;;;1.15;;
68803;SDS011;55787;52.678;13.314;2024-01-27T02:50:05;18.95;;;1.40;;
68803;SDS011;55787;52.678;13.314;2024-01-27T02:52:35;18.90;;;0.83;;
68803;SDS011;55787;52.678;13.314;2024-01-27T02:55:01;13.23;;;1.13;;
68803;SDS011;55787;52.678;13.314;2024-01-27T02:57:28;10.23;;;0.95;;
68803;SDS011;55787;52.678;13.314;2024-01-27T02:59:55;9.48;;;0.82;;
68803;SDS011;55787;52.678;13.314;2024-01-27T03:02:21;9.00;;;0.57;;
68803;SDS011;55787;52.678;13.314;2024-01-27T03:04:48;14.23;;;0.83;;
68803;SDS011;55787;52.678;13.314;2024-01-27T03:07:15;15.13;;;1.10;;
68803;SDS011;55787;52.678;13.314;2024-01-27T03:09:41;21.50;;;1.50;;
68803;SDS011;55787;52.678;13.314;2024-01-27T03:12:08;14.65;;;1.23;;
68803;SDS011;55787;52.678;13.314;2024-01-27T03:14:35;12.60;;;0.82;;
68803;SDS011;55787;52.678;13.314;2024-01-27T03:17:01;15.30;;;1.33;;
68803;SDS011;55787;52.678;13.314;2024-01-27T03:19:28;12.85;;;0.70;;
68803;SDS011;55787;52.678;13.314;2024-01-27T03:21:55;14.52;;;1.00;;
68803;SDS011;55787;52.678;13.314;2024-01-27T03:24:21;9.98;;;0.90;;
68803;SDS011;55787;52.678;13.314;2024-01-27T03:26:48;18.73;;;0.85;;
68803;SDS011;55787;52.678;13.314;2024-01-27T03:29:15;15.20;;;1.00;;
68803;SDS011;55787;52.678;13.314;2024-01-27T03:31:41;14.40;;;1.30;;
68803;SDS011;55787;52.678;13.314;2024-01-27T03:34:08;14.43;;;0.90;;
68803;SDS011;55787;52.678;13.314;2024-01-27T03:36:35;11.55;;;1.30;;
68803;SDS011;55787;52.678;13.314;2024-01-27T03:39:02;15.02;;;1.02;;
68803;SDS011;55787;52.678;13.314;2024-01-27T03:41:29;11.87;;;0.67;;
68803;SDS011;55787;52.678;13.314;2024-01-27T03:43:56;12.20;;;1.13;;
68803;SDS011;55787;52.678;13.314;2024-01-27T03:46:22;12.32;;;0.95;;
68803;SDS011;55787;52.678;13.314;2024-01-27T03:48:49;13.27;;;0.80;;
68803;SDS011;55787;52.678;13.314;2024-01-27T03:51:16;14.60;;;1.00;;
68803;SDS011;55787;52.678;13.314;2024-01-27T03:53:42;14.03;;;1.13;;
68803;SDS011;55787;52.678;13.314;2024-01-27T03:56:12;9.05;;;0.73;;
68803;SDS011;55787;52.678;13.314;2024-01-27T03:58:39;12.23;;;1.17;;
68803;SDS011;55787;52.678;13.314;2024-01-27T04:01:06;11.82;;;0.80;;
68803;SDS011;55787;52.678;13.314;2024-01-27T04:03:33;13.38;;;1.00;;
68803;SDS011;55787;52.678;13.314;2024-01-27T04:05:59;11.03;;;0.70;;
68803;SDS011;55787;52.678;13.314;2024-01-27T04:08:29;16.10;;;1.77;;
68803;SDS011;55787;52.678;13.314;2024-01-27T04:10:57;15.13;;;1.55;;
68803;SDS011;55787;52.678;13.314;2024-01-27T04:13:24;11.80;;;1.42;;
68803;SDS011;55787;52.678;13.314;2024-01-27T04:15:51;14.88;;;0.90;;
68803;SDS011;55787;52.678;13.314;2024-01-27T04:18:20;15.27;;;1.40;;
68803;SDS011;55787;52.678;13.314;2024-01-27T04:20:47;9.13;;;1.38;;
68803;SDS011;55787;52.678;13.314;2024-01-27T04:23:15;11.68;;;1.10;;
68803;SDS011;55787;52.678;13.314;2024-01-27T04:25:42;10.38;;;1.15;;
68803;SDS011;55787;52.678;13.314;2024-01-27T04:28:09;9.95;;;0.80;;
68803;SDS011;55787;52.678;13.314;2024-01-27T04:30:38;13.87;;;1.20;;
68803;SDS011;55787;52.678;13.314;2024-01-27T04:33:04;15.98;;;1.27;;
68803;SDS011;55787;52.678;13.314;2024-01-27T04:35:33;15.00;;;1.00;;
68803;SDS011;55787;52.678;13.314;2024-01-27T04:38:00;12.60;;;1.02;;
68803;SDS011;55787;52.678;13.314;2024-01-27T04:40:27;17.80;;;0.98;;
68803;SDS011;55787;52.678;13.314;2024-01-27T04:42:54;10.60;;;0.73;;
68803;SDS011;55787;52.678;13.314;2024-01-27T04:45:20;15.00;;;1.48;;
68803;SDS011;55787;52.678;13.314;2024-01-27T04:47:47;13.60;;;1.35;;
68803;SDS011;55787;52.678;13.314;2024-01-27T04:50:14;15.57;;;1.27;;
68803;SDS011;55787;52.678;13.314;2024-01-27T04:52:41;10.52;;;0.70;;
68803;SDS011;55787;52.678;13.314;2024-01-27T04:55:08;13.80;;;1.57;;
68803;SDS011;55787;52.678;13.314;2024-01-27T04:57:34;16.80;;;1.33;;
68803;SDS011;55787;52.678;13.314;2024-01-27T05:00:01;15.68;;;1.10;;
68803;SDS011;55787;52.678;13.314;2024-01-27T05:02:28;15.68;;;0.85;;
68803;SDS011;55787;52.678;13.314;2024-01-27T05:04:54;10.52;;;0.90;;
68803;SDS011;55787;52.678;13.314;2024-01-27T05:07:21;12.90;;;0.87;;
68803;SDS011;55787;52.678;13.314;2024-01-27T05:09:48;13.18;;;1.20;;
68803;SDS011;55787;52.678;13.314;2024-01-27T05:12:14;13.05;;;1.13;;
68803;SDS011;55787;52.678;13.314;2024-01-27T05:14:44;12.15;;;1.17;;
68803;SDS011;55787;52.678;13.314;2024-01-27T05:17:13;14.95;;;1.27;;
68803;SDS011;55787;52.678;13.314;2024-01-27T05:19:40;13.53;;;1.33;;
68803;SDS011;55787;52.678;13.314;2024-01-27T05:22:07;15.20;;;1.30;;
68803;SDS011;55787;52.678;13.314;2024-01-27T05:24:33;15.98;;;1.73;;
68803;SDS011;55787;52.678;13.314;2024-01-27T05:27:00;17.70;;;1.15;;
68803;SDS011;55787;52.678;13.314;2024-01-27T05:29:29;14.23;;;1.05;;
68803;SDS011;55787;52.678;13.314;2024-01-27T05:31:56;10.80;;;1.13;;
68803;SDS011;55787;52.678;13.314;2024-01-27T05:34:22;13.32;;;1.58;;
68803;SDS011;55787;52.678;13.314;2024-01-27T05:36:49;18.92;;;1.13;;
68803;SDS011;55787;52.678;13.314;2024-01-27T05:39:16;12.88;;;0.75;;
68803;SDS011;55787;52.678;13.314;2024-01-27T05:41:42;15.68;;;1.17;;
68803;SDS011;55787;52.678;13.314;2024-01-27T05:44:09;19.37;;;1.50;;
68803;SDS011;55787;52.678;13.314;2024-01-27T05:46:35;17.85;;;1.10;;
68803;SDS011;55787;52.678;13.314;2024-01-27T05:49:02;14.80;;;1.23;;
68803;SDS011;55787;52.678;13.314;2024-01-27T05:51:30;11.95;;;1.25;;
68803;SDS011;55787;52.678;13.314;2024-01-27T05:53:57;13.98;;;1.08;;
68803;SDS011;55787;52.678;13.314;2024-01-27T05:56:23;9.43;;;1.10;;
68803;SDS011;55787;52.678;13.314;2024-01-27T05:58:50;16.25;;;1.35;;
68803;SDS011;55787;52.678;13.314;2024-01-27T06:01:18;15.02;;;1.15;;
68803;SDS011;55787;52.678;13.314;2024-01-27T06:03:45;8.07;;;0.80;;
68803;SDS011;55787;52.678;13.314;2024-01-27T06:06:12;12.00;;;1.02;;
68803;SDS011;55787;52.678;13.314;2024-01-27T06:08:39;11.33;;;0.90;;
68803;SDS011;55787;52.678;13.314;2024-01-27T06:11:06;18.48;;;1.90;;
68803;SDS011;55787;52.678;13.314;2024-01-27T06:13:35;17.33;;;1.25;;
68803;SDS011;55787;52.678;13.314;2024-01-27T06:16:07;14.65;;;1.08;;
68803;SDS011;55787;52.678;13.314;2024-01-27T06:18:38;9.00;;;0.60;;
68803;SDS011;55787;52.678;13.314;2024-01-27T06:21:06;16.40;;;1.63;;
68803;SDS011;55787;52.678;13.314;2024-01-27T06:23:33;12.05;;;0.90;;
68803;SDS011;55787;52.678;13.314;2024-01-27T06:26:04;13.45;;;1.15;;
68803;SDS011;55787;52.678;13.314;2024-01-27T06:28:33;15.07;;;1.60;;
68803;SDS011;55787;52.678;13.314;2024-01-27T06:31:01;16.80;;;1.38;;
68803;SDS011;55787;52.678;13.314;2024-01-27T06:33:29;16.90;;;1.20;;
68803;SDS011;55787;52.678;13.314;2024-01-27T06:35:55;17.88;;;1.55;;
68803;SDS011;55787;52.678;13.314;2024-01-27T06:38:22;10.77;;;1.25;;
68803;SDS011;55787;52.678;13.314;2024-01-27T06:40:49;11.93;;;0.60;;
68803;SDS011;55787;52.678;13.314;2024-01-27T06:43:15;14.85;;;1.13;;
68803;SDS011;55787;52.678;13.314;2024-01-27T06:45:42;17.00;;;1.50;;
68803;SDS011;55787;52.678;13.314;2024-01-27T06:48:09;10.82;;;0.90;;
68803;SDS011;55787;52.678;13.314;2024-01-27T06:50:36;9.60;;;0.95;;
68803;SDS011;55787;52.678;13.314;2024-01-27T06:53:02;15.52;;;1.02;;
68803;SDS011;55787;52.678;13.314;2024-01-27T06:55:29;10.85;;;0.90;;
68803;SDS011;55787;52.678;13.314;2024-01-27T06:57:56;18.10;;;1.23;;
68803;SDS011;55787;52.678;13.314;2024-01-27T07:00:22;14.88;;;1.10;;
68803;SDS011;55787;52.678;13.314;2024-01-27T07:02:49;11.38;;;1.15;;
68803;SDS011;55787;52.678;13.314;2024-01-27T07:05:16;13.27;;;0.80;;
68803;SDS011;55787;52.678;13.314;2024-01-27T07:07:42;13.45;;;1.40;;
68803;SDS011;55787;52.678;13.314;2024-01-27T07:10:09;16.30;;;1.40;;
68803;SDS011;55787;52.678;13.314;2024-01-27T07:12:36;13.57;;;1.30;;
68803;SDS011;55787;52.678;13.314;2024-01-27T07:15:03;13.98;;;1.02;;
68803;SDS011;55787;52.678;13.314;2024-01-27T07:17:30;13.48;;;1.13;;
68803;SDS011;55787;52.678;13.314;2024-01-27T07:19:56;14.93;;;1.42;;
68803;SDS011;55787;52.678;13.314;2024-01-27T07:22:23;11.87;;;0.60;;
68803;SDS011;55787;52.678;13.314;2024-01-27T07:24:53;11.70;;;0.90;;
68803;SDS011;55787;52.678;13.314;2024-01-27T07:27:19;11.18;;;1.25;;
68803;SDS011;55787;52.678;13.314;2024-01-27T07:29:46;15.35;;;1.00;;
68803;SDS011;55787;52.678;13.314;2024-01-27T07:32:12;16.00;;;1.33;;
68803;SDS011;55787;52.678;13.314;2024-01-27T07:34:41;10.67;;;1.10;;
68803;SDS011;55787;52.678;13.314;2024-01-27T07:37:09;13.80;;;1.30;;
68803;SDS011;55787;52.678;13.314;2024-01-27T07:39:35;10.77;;;0.90;;
68803;SDS011;55787;52.678;13.314;2024-01-27T07:42:02;12.27;;;0.95;;
68803;SDS011;55787;52.678;13.314;2024-01-27T07:44:29;12.07;;;0.95;;
68803;SDS011;55787;52.678;13.314;2024-01-27T07:46:56;14.00;;;1.53;;
68803;SDS011;55787;52.678;13.314;2024-01-27T07:49:22;11.23;;;0.90;;
68803;SDS011;55787;52.678;13.314;2024-01-27T07:51:49;14.00;;;1.35;;
68803;SDS011;55787;52.678;13.314;2024-01-27T07:54:16;11.15;;;0.98;;
68803;SDS011;55787;52.678;13.314;2024-01-27T07:56:42;17.45;;;1.40;;
68803;SDS011;55787;52.678;13.314;2024-01-27T07:59:09;16.93;;;1.40;;
68803;SDS011;55787;52.678;13.314;2024-01-27T08:01:40;13.20;;;0.98;;
68803;SDS011;55787;52.678;13.314;2024-01-27T08:04:07;14.65;;;1.25;;
68803;SDS011;55787;52.678;13.314;2024-01-27T08:06:45;13.00;;;1.50;;
68803;SDS011;55787;52.678;13.314;2024-01-27T08:09:15;14.07;;;1.00;;
68803;SDS011;55787;52.678;13.314;2024-01-27T08:11:43;18.67;;;1.27;;
68803;SDS011;55787;52.678;13.314;2024-01-27T08:14:10;13.73;;;1.13;;
68803;SDS011;55787;52.678;13.314;2024-01-27T08:16:36;15.82;;;1.33;;
68803;SDS011;55787;52.678;13.314;2024-01-27T08:19:03;13.02;;;1.00;;
68803;SDS011;55787;52.678;13.314;2024-01-27T08:21:31;17.42;;;1.95;;
68803;SDS011;55787;52.678;13.314;2024-01-27T08:23:58;12.30;;;1.27;;
68803;SDS011;55787;52.678;13.314;2024-01-27T08:26:25;16.17;;;1.20;;
68803;SDS011;55787;52.678;13.314;2024-01-27T08:28:52;16.02;;;1.73;;
68803;SDS011;55787;52.678;13.314;2024-01-27T08:31:20;12.10;;;1.42;;
68803;SDS011;55787;52.678;13.314;2024-01-27T08:33:47;17.33;;;2.35;;
68803;SDS011;55787;52.678;13.314;2024-01-27T08:36:14;16.57;;;1.20;;
68803;SDS011;55787;52.678;13.314;2024-01-27T08:38:41;15.73;;;1.50;;
68803;SDS011;55787;52.678;13.314;2024-01-27T08:41:08;13.65;;;1.20;;
68803;SDS011;55787;52.678;13.314;2024-01-27T08:43:34;12.98;;;1.30;;
68803;SDS011;55787;52.678;13.314;2024-01-27T08:46:01;11.60;;;1.58;;
68803;SDS011;55787;52.678;13.314;2024-01-27T08:48:28;16.53;;;1.70;;
68803;SDS011;55787;52.678;13.314;2024-01-27T08:50:54;10.48;;;0.95;;
68803;SDS011;55787;52.678;13.314;2024-01-27T08:53:21;13.77;;;1.02;;
68803;SDS011;55787;52.678;13.314;2024-01-27T08:55:48;14.85;;;1.40;;
68803;SDS011;55787;52.678;13.314;2024-01-27T08:58:14;17.10;;;1.50;;
68803;SDS011;55787;52.678;13.314;2024-01-27T09:00:41;11.40;;;1.13;;
68803;SDS011;55787;52.678;13.314;2024-01-27T09:03:08;10.70;;;1.30;;
68803;SDS011;55787;52.678;13.314;2024-01-27T09:05:34;14.20;;;1.52;;
68803;SDS011;55787;52.678;13.314;2024-01-27T09:08:01;15.63;;;1.35;;
68803;SDS011;55787;52.678;13.314;2024-01-27T09:10:28;13.77;;;1.10;;
68803;SDS011;55787;52.678;13.314;2024-01-27T09:12:55;14.03;;;1.13;;
68803;SDS011;55787;52.678;13.314;2024-01-27T09:15:21;14.00;;;1.67;;
68803;SDS011;55787;52.678;13.314;2024-01-27T09:17:48;13.98;;;1.42;;
68803;SDS011;55787;52.678;13.314;2024-01-27T09:20:15;13.18;;;1.13;;
68803;SDS011;55787;52.678;13.314;2024-01-27T09:22:41;14.60;;;1.45;;
68803;SDS011;55787;52.678;13.314;2024-01-27T09:25:08;13.50;;;1.17;;
68803;SDS011;55787;52.678;13.314;2024-01-27T09:27:34;14.25;;;1.27;;
68803;SDS011;55787;52.678;13.314;2024-01-27T09:30:01;14.52;;;1.27;;
68803;SDS011;55787;52.678;13.314;2024-01-27T09:32:29;16.00;;;1.33;;
68803;SDS011;55787;52.678;13.314;2024-01-27T09:34:56;15.10;;;1.23;;
68803;SDS011;55787;52.678;13.314;2024-01-27T09:37:23;13.70;;;1.10;;
68803;SDS011;55787;52.678;13.314;2024-01-27T09:39:54;11.18;;;1.50;;
68803;SDS011;55787;52.678;13.314;2024-01-27T09:42:21;12.50;;;1.38;;
68803;SDS011;55787;52.678;13.314;2024-01-27T09:44:49;16.00;;;1.77;;
68803;SDS011;55787;52.678;13.314;2024-01-27T09:47:16;19.90;;;1.60;;
68803;SDS011;55787;52.678;13.314;2024-01-27T09:49:42;9.60;;;1.43;;
68803;SDS011;55787;52.678;13.314;2024-01-27T09:52:10;11.07;;;0.98;;
68803;SDS011;55787;52.678;13.314;2024-01-27T09:54:37;13.50;;;1.30;;
68803;SDS011;55787;52.678;13.314;2024-01-27T09:57:04;15.45;;;1.40;;
68803;SDS011;55787;52.678;13.314;2024-01-27T09:59:31;14.25;;;1.60;;
68803;SDS011;55787;52.678;13.314;2024-01-27T10:01:59;18.03;;;1.37;;
68803;SDS011;55787;52.678;13.314;2024-01-27T10:04:27;16.20;;;1.98;;
68803;SDS011;55787;52.678;13.314;2024-01-27T10:06:54;17.38;;;1.42;;
68803;SDS011;55787;52.678;13.314;2024-01-27T10:09:24;15.13;;;1.50;;
68803;SDS011;55787;52.678;13.314;2024-01-27T10:11:50;9.48;;;1.05;;
68803;SDS011;55787;52.678;13.314;2024-01-27T10:14:18;9.33;;;1.23;;
68803;SDS011;55787;52.678;13.314;2024-01-27T10:16:45;13.57;;;1.40;;
68803;SDS011;55787;52.678;13.314;2024-01-27T10:19:16;13.80;;;1.70;;
68803;SDS011;55787;52.678;13.314;2024-01-27T10:21:44;12.82;;;1.45;;
68803;SDS011;55787;52.678;13.314;2024-01-27T10:24:12;18.67;;;1.67;;
68803;SDS011;55787;52.678;13.314;2024-01-27T10:26:39;12.47;;;2.00;;
68803;SDS011;55787;52.678;13.314;2024-01-27T10:29:06;12.70;;;1.45;;
68803;SDS011;55787;52.678;13.314;2024-01-27T10:31:35;10.93;;;1.40;;
68803;SDS011;55787;52.678;13.314;2024-01-27T10:34:05;13.93;;;1.33;;
68803;SDS011;55787;52.678;13.314;2024-01-27T10:36:39;14.65;;;2.35;;
68803;SDS011;55787;52.678;13.314;2024-01-27T10:39:20;14.13;;;1.97;;
68803;SDS011;55787;52.678;13.314;2024-01-27T10:41:49;12.20;;;1.88;;
68803;SDS011;55787;52.678;13.314;2024-01-27T10:44:17;13.15;;;1.85;;
68803;SDS011;55787;52.678;13.314;2024-01-27T10:46:48;14.88;;;1.55;;
68803;SDS011;55787;52.678;13.314;2024-01-27T10:49:16;13.32;;;2.28;;
68803;SDS011;55787;52.678;13.314;2024-01-27T10:51:44;16.20;;;1.77;;
68803;SDS011;55787;52.678;13.314;2024-01-27T10:54:13;16.27;;;1.58;;
68803;SDS011;55787;52.678;13.314;2024-01-27T10:56:44;14.73;;;2.13;;
68803;SDS011;55787;52.678;13.314;2024-01-27T10:59:12;10.90;;;1.10;;
68803;SDS011;55787;52.678;13.314;2024-01-27T11:01:41;14.57;;;1.70;;
68803;SDS011;55787;52.678;13.314;2024-01-27T11:04:08;14.13;;;1.80;;
68803;SDS011;55787;52.678;13.314;2024-01-27T11:06:37;15.80;;;1.50;;
68803;SDS011;55787;52.678;13.314;2024-01-27T11:09:05;12.65;;;1.80;;
68803;SDS011;55787;52.678;13.314;2024-01-27T11:11:32;13.18;;;2.75;;
68803;SDS011;55787;52.678;13.314;2024-01-27T11:13:58;17.35;;;3.15;;
68803;SDS011;55787;52.678;13.314;2024-01-27T11:16:25;12.77;;;2.20;;
68803;SDS011;55787;52.678;13.314;2024-01-27T11:18:53;13.10;;;2.00;;
68803;SDS011;55787;52.678;13.314;2024-01-27T11:21:20;14.07;;;1.50;;
68803;SDS011;55787;52.678;13.314;2024-01-27T11:23:47;12.02;;;1.17;;
68803;SDS011;55787;52.678;13.314;2024-01-27T11:26:20;14.65;;;2.25;;
68803;SDS011;55787;52.678;13.314;2024-01-27T11:28:50;12.33;;;1.90;;
68803;SDS011;55787;52.678;13.314;2024-01-27T11:31:18;13.13;;;1.85;;
68803;SDS011;55787;52.678;13.314;2024-01-27T11:33:47;15.57;;;1.65;;
68803;SDS011;55787;52.678;13.314;2024-01-27T11:36:19;18.48;;;1.85;;
68803;SDS011;55787;52.678;13.314;2024-01-27T11:38:52;12.63;;;1.90;;
68803;SDS011;55787;52.678;13.314;2024-01-27T11:41:27;11.87;;;1.70;;
68803;SDS011;55787;52.678;13.314;2024-01-27T11:43:55;8.30;;;1.27;;
68803;SDS011;55787;52.678;13.314;2024-01-27T11:46:23;12.70;;;1.63;;
68803;SDS011;55787;52.678;13.314;2024-01-27T11:48:50;13.18;;;1.45;;
68803;SDS011;55787;52.678;13.314;2024-01-27T11:51:17;13.68;;;1.63;;
68803;SDS011;55787;52.678;13.314;2024-01-27T11:53:45;8.30;;;0.77;;
68803;SDS011;55787;52.678;13.314;2024-01-27T11:56:13;11.95;;;1.95;;
68803;SDS011;55787;52.678;13.314;2024-01-27T11:58:45;12.95;;;1.55;;
68803;SDS011;55787;52.678;13.314;2024-01-27T12:01:14;12.65;;;1.38;;
68803;SDS011;55787;52.678;13.314;2024-01-27T12:03:41;11.30;;;1.48;;
68803;SDS011;55787;52.678;13.314;2024-01-27T12:06:11;11.23;;;1.20;;
68803;SDS011;55787;52.678;13.314;2024-01-27T12:08:43;13.55;;;1.45;;
68803;SDS011;55787;52.678;13.314;2024-01-27T12:11:16;11.07;;;1.70;;
68803;SDS011;55787;52.678;13.314;2024-01-27T12:13:49;12.45;;;1.92;;
68803;SDS011;55787;52.678;13.314;2024-01-27T12:16:16;11.65;;;1.20;;
68803;SDS011;55787;52.678;13.314;2024-01-27T12:18:44;13.93;;;1.50;;
68803;SDS011;55787;52.678;13.314;2024-01-27T12:21:11;11.52;;;1.40;;
68803;SDS011;55787;52.678;13.314;2024-01-27T12:23:51;15.63;;;1.75;;
68803;SDS011;55787;52.678;13.314;2024-01-27T12:26:20;12.40;;;1.77;;
68803;SDS011;55787;52.678;13.314;2024-01-27T12:28:48;12.23;;;2.10;;
68803;SDS011;55787;52.678;13.314;2024-01-27T12:31:18;16.53;;;2.47;;
68803;SDS011;55787;52.678;13.314;2024-01-27T12:33:51;16.13;;;2.42;;
68803;SDS011;55787;52.678;13.314;2024-01-27T12:36:19;15.70;;;2.83;;
68803;SDS011;55787;52.678;13.314;2024-01-27T12:38:52;13.88;;;2.60;;
68803;SDS011;55787;52.678;13.314;2024-01-27T12:41:26;14.45;;;2.75;;
68803;SDS011;55787;52.678;13.314;2024-01-27T12:43:54;10.70;;;2.00;;
68803;SDS011;55787;52.678;13.314;2024-01-27T12:46:21;15.50;;;2.65;;
68803;SDS011;55787;52.678;13.314;2024-01-27T12:48:48;14.70;;;1.92;;
68803;SDS011;55787;52.678;13.314;2024-01-27T12:51:15;15.55;;;2.53;;
68803;SDS011;55787;52.678;13.314;2024-01-27T12:53:42;14.63;;;2.33;;
68803;SDS011;55787;52.678;13.314;2024-01-27T12:56:11;15.73;;;2.30;;
68803;SDS011;55787;52.678;13.314;2024-01-27T12:58:41;13.68;;;1.95;;
68803;SDS011;55787;52.678;13.314;2024-01-27T13:01:08;17.05;;;2.40;;
68803;SDS011;55787;52.678;13.314;2024-01-27T13:03:35;11.48;;;1.70;;
68803;SDS011;55787;52.678;13.314;2024-01-27T13:06:02;14.23;;;2.83;;
68803;SDS011;55787;52.678;13.314;2024-01-27T13:08:29;8.90;;;1.43;;
68803;SDS011;55787;52.678;13.314;2024-01-27T13:10:56;15.15;;;1.88;;
68803;SDS011;55787;52.678;13.314;2024-01-27T13:13:22;10.90;;;1.50;;
68803;SDS011;55787;52.678;13.314;2024-01-27T13:15:49;14.05;;;2.03;;
68803;SDS011;55787;52.678;13.314;2024-01-27T13:18:15;13.80;;;1.48;;
68803;SDS011;55787;52.678;13.314;2024-01-27T13:20:43;13.20;;;1.90;;
68803;SDS011;55787;52.678;13.314;2024-01-27T13:23:09;9.80;;;1.63;;
68803;SDS011;55787;52.678;13.314;2024-01-27T13:25:36;9.73;;;1.95;;
68803;SDS011;55787;52.678;13.314;2024-01-27T13:28:03;13.52;;;1.60;;
68803;SDS011;55787;52.678;13.314;2024-01-27T13:30:29;13.05;;;1.88;;
68803;SDS011;55787;52.678;13.314;2024-01-27T13:32:56;10.83;;;1.67;;
68803;SDS011;55787;52.678;13.314;2024-01-27T13:35:23;13.43;;;1.60;;
68803;SDS011;55787;52.678;13.314;2024-01-27T13:37:50;14.07;;;1.70;;
68803;SDS011;55787;52.678;13.314;2024-01-27T13:40:17;14.05;;;1.73;;
68803;SDS011;55787;52.678;13.314;2024-01-27T13:42:44;13.13;;;2.40;;
68803;SDS011;55787;52.678;13.314;2024-01-27T13:45:10;13.90;;;2.00;;
68803;SDS011;55787;52.678;13.314;2024-01-27T13:47:37;13.77;;;1.90;;
68803;SDS011;55787;52.678;13.314;2024-01-27T13:50:04;13.00;;;2.05;;
68803;SDS011;55787;52.678;13.314;2024-01-27T13:52:32;15.30;;;3.22;;
68803;SDS011;55787;52.678;13.314;2024-01-27T13:54:59;14.50;;;2.70;;
68803;SDS011;55787;52.678;13.314;2024-01-27T13:57:26;15.37;;;2.43;;
68803;SDS011;55787;52.678;13.314;2024-01-27T13:59:52;14.45;;;2.67;;
68803;SDS011;55787;52.678;13.314;2024-01-27T14:02:19;13.80;;;2.50;;
68803;SDS011;55787;52.678;13.314;2024-01-27T14:04:46;18.17;;;4.00;;
68803;SDS011;55787;52.678;13.314;2024-01-27T14:07:13;13.82;;;3.50;;
68803;SDS011;55787;52.678;13.314;2024-01-27T14:09:40;17.07;;;2.80;;
68803;SDS011;55787;52.678;13.314;2024-01-27T14:12:06;14.18;;;2.75;;
68803;SDS011;55787;52.678;13.314;2024-01-27T14:14:33;15.35;;;2.20;;
68803;SDS011;55787;52.678;13.314;2024-01-27T14:17:02;15.43;;;2.00;;
68803;SDS011;55787;52.678;13.314;2024-01-27T14:19:29;13.65;;;2.60;;
68803;SDS011;55787;52.678;13.314;2024-01-27T14:21:56;13.60;;;2.30;;
68803;SDS011;55787;52.678;13.314;2024-01-27T14:24:22;16.95;;;2.97;;